createdAt,value
2018-10-03T00:01:00.106Z,724.60
2018-10-03T00:02:00.573Z,724.85
2018-10-03T00:03:01.047Z,724.54
2018-10-03T00:04:01.519Z,724.15
2018-10-03T00:05:01.993Z,724.35
2018-10-03T00:06:02.462Z,724.28
2018-10-03T00:07:02.938Z,724.17
2018-10-03T00:08:03.409Z,724.29
2018-10-03T00:09:03.880Z,724.56
2018-10-03T00:10:04.351Z,724.41
2018-10-03T00:11:04.825Z,724.37
2018-10-03T00:12:05.295Z,724.62
2018-10-03T00:13:05.764Z,724.18
2018-10-03T00:14:06.233Z,724.55
2018-10-03T00:15:06.704Z,724.73
2018-10-03T00:16:07.176Z,724.33
2018-10-03T00:17:07.643Z,724.79
2018-10-03T00:18:08.115Z,724.65
2018-10-03T00:19:08.583Z,724.13
2018-10-03T00:20:09.053Z,724.43
2018-10-03T00:21:09.522Z,724.69
2018-10-03T00:22:09.995Z,724.39
2018-10-03T00:23:10.464Z,724.64
2018-10-03T00:24:10.933Z,724.64
2018-10-03T00:25:11.401Z,724.36
2018-10-03T00:26:11.869Z,724.29
2018-10-03T00:27:12.337Z,724.42
2018-10-03T00:28:12.806Z,724.46
2018-10-03T00:29:13.273Z,724.41
2018-10-03T00:30:13.743Z,724.28
2018-10-03T00:31:14.215Z,724.58
2018-10-03T00:32:14.680Z,724.76
2018-10-03T00:33:15.150Z,724.54
2018-10-03T00:34:15.618Z,724.39
2018-10-03T00:35:16.088Z,724.73
2018-10-03T00:36:16.557Z,724.63
2018-10-03T00:37:17.024Z,724.90
2018-10-03T00:38:17.496Z,724.78
2018-10-03T00:39:17.964Z,724.93
2018-10-03T00:40:18.433Z,724.63
2018-10-03T00:41:18.900Z,724.48
2018-10-03T00:42:19.372Z,724.71
2018-10-03T00:43:19.841Z,724.79
2018-10-03T00:44:20.310Z,724.59
2018-10-03T00:45:20.778Z,724.69
2018-10-03T00:46:21.250Z,724.58
2018-10-03T00:47:21.719Z,724.07
2018-10-03T00:48:22.188Z,724.56
2018-10-03T00:49:22.658Z,724.83
2018-10-03T00:50:23.126Z,724.71
2018-10-03T00:51:23.597Z,724.39
2018-10-03T00:52:24.067Z,724.71
2018-10-03T00:53:24.537Z,724.62
2018-10-03T00:54:25.007Z,724.72
2018-10-03T00:55:25.480Z,724.51
2018-10-03T00:56:25.947Z,724.59
2018-10-03T00:57:26.419Z,724.53
2018-10-03T00:58:26.890Z,724.57
2018-10-03T00:59:27.357Z,724.54
2018-10-03T01:00:27.830Z,724.83
2018-10-03T01:01:28.299Z,724.30
2018-10-03T01:02:28.773Z,724.41
2018-10-03T01:03:29.247Z,724.50
2018-10-03T01:04:29.716Z,724.33
2018-10-03T01:05:30.184Z,724.54
2018-10-03T01:06:30.656Z,724.29
2018-10-03T01:07:31.126Z,724.28
2018-10-03T01:08:31.599Z,724.65
2018-10-03T01:09:32.068Z,724.61
2018-10-03T01:10:32.539Z,724.75
2018-10-03T01:11:33.010Z,724.74
2018-10-03T01:12:33.483Z,724.51
2018-10-03T01:13:33.953Z,724.60
2018-10-03T01:14:34.427Z,724.67
2018-10-03T01:15:34.898Z,724.44
2018-10-03T01:16:35.370Z,724.27
2018-10-03T01:17:35.838Z,724.52
2018-10-03T01:18:36.311Z,724.56
2018-10-03T01:19:36.783Z,724.38
2018-10-03T01:20:37.254Z,724.56
2018-10-03T01:21:37.726Z,724.33
2018-10-03T01:22:38.222Z,724.44
2018-10-03T01:23:38.673Z,724.33
2018-10-03T01:24:39.142Z,724.55
2018-10-03T01:25:39.625Z,724.37
2018-10-03T01:26:40.088Z,724.20
2018-10-03T01:27:40.557Z,724.37
2018-10-03T01:28:41.029Z,724.31
2018-10-03T01:29:41.502Z,724.58
2018-10-03T01:30:41.973Z,724.51
2018-10-03T01:31:42.445Z,724.46
2018-10-03T01:32:42.920Z,724.56
2018-10-03T01:33:43.389Z,724.43
2018-10-03T01:34:43.863Z,724.55
2018-10-03T01:35:44.334Z,724.08
2018-10-03T01:36:44.807Z,724.44
2018-10-03T01:37:45.282Z,724.43
2018-10-03T01:38:45.752Z,724.39
2018-10-03T01:39:46.225Z,724.55
2018-10-03T01:40:46.699Z,724.54
2018-10-03T01:41:47.168Z,724.35
2018-10-03T01:42:47.642Z,724.58
2018-10-03T01:43:48.114Z,724.50
2018-10-03T01:44:48.589Z,724.34
2018-10-03T01:45:49.059Z,724.53
2018-10-03T01:46:49.533Z,724.74
2018-10-03T01:47:50.004Z,724.53
2018-10-03T01:48:50.481Z,724.36
2018-10-03T01:49:50.956Z,724.66
2018-10-03T01:50:51.424Z,724.53
2018-10-03T01:51:51.900Z,724.44
2018-10-03T01:52:52.369Z,724.67
2018-10-03T01:53:52.841Z,724.32
2018-10-03T01:54:53.314Z,724.74
2018-10-03T01:55:53.792Z,724.60
2018-10-03T01:56:54.260Z,724.66
2018-10-03T01:57:54.734Z,724.70
2018-10-03T01:58:55.205Z,724.60
2018-10-03T01:59:55.677Z,724.52
2018-10-03T02:00:56.152Z,724.44
2018-10-03T02:01:56.624Z,724.61
2018-10-03T02:02:57.097Z,724.54
2018-10-03T02:03:57.568Z,724.41
2018-10-03T02:04:58.047Z,724.35
2018-10-03T02:05:58.514Z,724.57
2018-10-03T02:06:58.989Z,724.56
2018-10-03T02:07:59.459Z,724.46
2018-10-03T02:08:59.932Z,724.57
2018-10-03T02:10:00.404Z,724.57
2018-10-03T02:11:00.877Z,724.32
2018-10-03T02:12:01.350Z,724.34
2018-10-03T02:13:01.821Z,724.49
2018-10-03T02:14:02.294Z,724.43
2018-10-03T02:15:02.767Z,724.10
2018-10-03T02:16:03.238Z,724.34
2018-10-03T02:17:03.714Z,724.34
2018-10-03T02:18:04.182Z,724.25
2018-10-03T02:19:04.647Z,724.47
2018-10-03T02:20:05.116Z,724.42
2018-10-03T02:21:05.586Z,724.52
2018-10-03T02:22:06.057Z,724.44
2018-10-03T02:23:06.525Z,724.65
2018-10-03T02:24:06.997Z,724.61
2018-10-03T02:25:07.470Z,724.40
2018-10-03T02:26:07.932Z,724.57
2018-10-03T02:27:08.402Z,724.60
2018-10-03T02:28:08.871Z,724.60
2018-10-03T02:29:09.342Z,724.61
2018-10-03T02:30:09.809Z,724.60
2018-10-03T02:31:10.280Z,724.08
2018-10-03T02:32:10.748Z,724.34
2018-10-03T02:33:11.219Z,724.48
2018-10-03T02:34:11.684Z,724.35
2018-10-03T02:35:12.154Z,724.64
2018-10-03T02:36:12.621Z,724.65
2018-10-03T02:37:13.090Z,724.52
2018-10-03T02:38:13.558Z,724.38
2018-10-03T02:39:14.031Z,724.53
2018-10-03T02:40:14.496Z,724.42
2018-10-03T02:41:14.967Z,724.53
2018-10-03T02:42:15.433Z,724.55
2018-10-03T02:43:15.903Z,724.61
2018-10-03T02:44:16.371Z,724.70
2018-10-03T02:45:16.842Z,724.62
2018-10-03T02:46:17.309Z,724.61
2018-10-03T02:47:17.780Z,724.72
2018-10-03T02:48:18.248Z,724.67
2018-10-03T02:49:18.717Z,724.75
2018-10-03T02:50:19.185Z,724.77
2018-10-03T02:51:19.655Z,724.72
2018-10-03T02:52:20.127Z,724.62
2018-10-03T02:53:20.594Z,724.62
2018-10-03T02:54:21.063Z,724.77
2018-10-03T02:55:21.532Z,724.82
2018-10-03T02:56:22.007Z,724.76
2018-10-03T02:57:22.478Z,724.72
2018-10-03T02:58:22.942Z,724.79
2018-10-03T02:59:23.412Z,724.67
2018-10-03T03:00:23.891Z,724.64
2018-10-03T03:01:24.352Z,724.72
2018-10-03T03:02:24.822Z,724.76
2018-10-03T03:03:25.292Z,724.69
2018-10-03T03:04:25.763Z,724.87
2018-10-03T03:05:26.231Z,724.76
2018-10-03T03:06:26.705Z,724.75
2018-10-03T03:07:27.173Z,724.75
2018-10-03T03:08:27.699Z,724.62
2018-10-03T03:09:28.113Z,724.73
2018-10-03T03:10:28.583Z,724.64
2018-10-03T03:12:29.524Z,724.80
2018-10-03T03:13:29.997Z,724.87
2018-10-03T03:14:30.465Z,724.83
2018-10-03T03:15:30.939Z,724.63
2018-10-03T03:16:31.407Z,724.67
2018-10-03T03:17:31.878Z,724.53
2018-10-03T03:18:32.348Z,724.68
2018-10-03T03:19:32.822Z,724.64
2018-10-03T03:20:33.290Z,724.62
2018-10-03T03:21:33.761Z,724.82
2018-10-03T03:22:34.232Z,724.23
2018-10-03T03:23:34.705Z,724.19
2018-10-03T03:24:35.175Z,724.41
2018-10-03T03:25:35.646Z,724.75
2018-10-03T03:26:36.118Z,724.77
2018-10-03T03:27:36.588Z,724.56
2018-10-03T03:28:37.061Z,724.67
2018-10-03T03:29:37.533Z,724.92
2018-10-03T03:30:38.051Z,724.83
2018-10-03T03:31:38.473Z,724.77
2018-10-03T03:32:38.947Z,724.85
2018-10-03T03:33:39.484Z,724.97
2018-10-03T03:34:39.887Z,724.70
2018-10-03T03:35:40.358Z,724.74
2018-10-03T03:36:40.892Z,724.86
2018-10-03T03:37:41.302Z,724.86
2018-10-03T03:38:41.774Z,724.71
2018-10-03T03:39:42.249Z,724.77
2018-10-03T03:40:42.718Z,724.70
2018-10-03T03:41:43.213Z,724.74
2018-10-03T03:42:43.658Z,724.73
2018-10-03T03:43:44.133Z,724.54
2018-10-03T03:44:44.604Z,724.39
2018-10-03T03:45:45.076Z,724.68
2018-10-03T03:46:45.545Z,724.59
2018-10-03T03:47:46.017Z,724.79
2018-10-03T03:48:46.488Z,724.85
2018-10-03T03:49:46.964Z,725.03
2018-10-03T03:50:47.435Z,724.70
2018-10-03T03:51:47.905Z,724.85
2018-10-03T03:52:48.378Z,724.84
2018-10-03T03:53:48.849Z,724.75
2018-10-03T03:54:49.326Z,724.81
2018-10-03T03:55:49.790Z,724.58
2018-10-03T03:56:50.263Z,724.99
2018-10-03T03:57:50.736Z,725.07
2018-10-03T03:58:51.207Z,725.12
2018-10-03T03:59:51.679Z,724.72
2018-10-03T04:00:52.154Z,724.55
2018-10-03T04:01:52.625Z,724.62
2018-10-03T04:02:53.095Z,724.91
2018-10-03T04:03:53.567Z,724.67
2018-10-03T04:04:54.041Z,724.70
2018-10-03T04:05:54.512Z,724.79
2018-10-03T04:06:54.987Z,725.07
2018-10-03T04:07:55.455Z,725.02
2018-10-03T04:08:55.979Z,725.26
2018-10-03T04:09:56.399Z,725.27
2018-10-03T04:10:56.871Z,724.68
2018-10-03T04:11:57.346Z,724.96
2018-10-03T04:12:57.817Z,724.83
2018-10-03T04:13:58.288Z,724.98
2018-10-03T04:14:58.759Z,724.94
2018-10-03T04:15:59.233Z,725.09
2018-10-03T04:16:59.707Z,725.14
2018-10-03T04:18:00.176Z,725.15
2018-10-03T04:19:00.649Z,724.98
2018-10-03T04:20:01.120Z,724.89
2018-10-03T04:21:01.592Z,725.10
2018-10-03T04:22:02.068Z,724.95
2018-10-03T04:23:02.537Z,724.93
2018-10-03T04:24:03.010Z,724.84
2018-10-03T04:25:03.482Z,724.95
2018-10-03T04:26:03.955Z,725.10
2018-10-03T04:27:04.430Z,725.17
2018-10-03T04:28:04.899Z,725.30
2018-10-03T04:29:05.372Z,724.86
2018-10-03T04:30:05.843Z,725.12
2018-10-03T04:31:06.317Z,725.09
2018-10-03T04:32:06.789Z,724.83
2018-10-03T04:33:07.260Z,724.77
2018-10-03T04:34:07.733Z,724.39
2018-10-03T04:35:08.206Z,725.05
2018-10-03T04:36:08.677Z,724.82
2018-10-03T04:37:09.151Z,724.61
2018-10-03T04:38:09.622Z,724.67
2018-10-03T04:39:10.096Z,724.92
2018-10-03T04:40:10.565Z,724.48
2018-10-03T04:41:11.039Z,724.67
2018-10-03T04:42:11.528Z,724.54
2018-10-03T04:43:11.983Z,724.92
2018-10-03T04:44:12.456Z,724.89
2018-10-03T04:45:12.929Z,724.84
2018-10-03T04:46:13.404Z,724.92
2018-10-03T04:47:13.872Z,724.77
2018-10-03T04:48:14.348Z,725.01
2018-10-03T04:49:14.819Z,724.99
2018-10-03T04:50:15.291Z,724.89
2018-10-03T04:51:15.765Z,725.18
2018-10-03T04:52:16.237Z,724.92
2018-10-03T04:53:16.707Z,725.07
2018-10-03T04:54:17.181Z,725.21
2018-10-03T04:55:17.653Z,724.90
2018-10-03T04:56:18.126Z,724.86
2018-10-03T04:57:18.597Z,724.83
2018-10-03T04:58:19.071Z,725.07
2018-10-03T04:59:19.542Z,725.00
2018-10-03T05:00:20.017Z,724.92
2018-10-03T05:01:20.487Z,725.26
2018-10-03T05:02:20.959Z,725.22
2018-10-03T05:03:21.433Z,724.98
2018-10-03T05:04:21.907Z,725.05
2018-10-03T05:05:22.377Z,725.26
2018-10-03T05:06:22.851Z,725.03
2018-10-03T05:07:23.322Z,725.03
2018-10-03T05:08:23.796Z,725.27
2018-10-03T05:09:24.268Z,725.11
2018-10-03T05:10:24.739Z,725.33
2018-10-03T05:11:25.288Z,724.98
2018-10-03T05:12:25.683Z,724.83
2018-10-03T05:13:26.157Z,725.11
2018-10-03T05:14:26.633Z,724.88
2018-10-03T05:15:27.103Z,725.24
2018-10-03T05:16:27.574Z,725.41
2018-10-03T05:17:28.048Z,725.20
2018-10-03T05:18:28.517Z,725.29
2018-10-03T05:19:28.991Z,725.16
2018-10-03T05:20:29.462Z,725.16
2018-10-03T05:21:29.934Z,725.09
2018-10-03T05:22:30.408Z,725.35
2018-10-03T05:23:30.881Z,725.00
2018-10-03T05:24:31.359Z,725.11
2018-10-03T05:25:31.826Z,725.25
2018-10-03T05:26:32.297Z,725.27
2018-10-03T05:27:32.770Z,724.80
2018-10-03T05:28:33.242Z,725.34
2018-10-03T05:29:33.716Z,725.23
2018-10-03T05:30:34.189Z,725.23
2018-10-03T05:31:34.659Z,725.03
2018-10-03T05:32:35.132Z,724.94
2018-10-03T05:33:35.609Z,725.38
2018-10-03T05:34:36.079Z,725.21
2018-10-03T05:35:36.549Z,725.12
2018-10-03T05:36:37.021Z,725.25
2018-10-03T05:37:37.493Z,725.21
2018-10-03T05:38:37.969Z,725.12
2018-10-03T05:39:38.452Z,725.30
2018-10-03T05:40:38.912Z,725.22
2018-10-03T05:41:39.385Z,724.99
2018-10-03T05:42:39.857Z,725.06
2018-10-03T05:43:40.330Z,725.07
2018-10-03T05:44:40.805Z,725.22
2018-10-03T05:45:41.276Z,725.34
2018-10-03T05:46:41.745Z,725.43
2018-10-03T05:47:42.219Z,725.61
2018-10-03T05:48:42.728Z,725.41
2018-10-03T05:49:43.163Z,725.70
2018-10-03T05:50:43.636Z,725.39
2018-10-03T05:51:44.108Z,725.29
2018-10-03T05:52:44.581Z,725.54
2018-10-03T05:53:45.053Z,725.59
2018-10-03T05:54:45.583Z,725.62
2018-10-03T05:55:45.996Z,725.48
2018-10-03T05:56:46.471Z,725.31
2018-10-03T05:57:46.944Z,725.48
2018-10-03T05:58:47.420Z,725.65
2018-10-03T05:59:47.939Z,725.66
2018-10-03T06:00:48.360Z,725.43
2018-10-03T06:01:48.837Z,725.56
2018-10-03T06:02:49.321Z,725.82
2018-10-03T06:03:49.780Z,725.70
2018-10-03T06:04:50.251Z,725.75
2018-10-03T06:05:50.728Z,725.67
2018-10-03T06:06:51.196Z,725.39
2018-10-03T06:07:51.670Z,725.68
2018-10-03T06:08:52.143Z,725.85
2018-10-03T06:09:52.615Z,725.65
2018-10-03T06:10:53.085Z,725.98
2018-10-03T06:11:53.557Z,725.80
2018-10-03T06:12:54.034Z,726.05
2018-10-03T06:13:54.503Z,725.97
2018-10-03T06:14:54.975Z,725.87
2018-10-03T06:15:55.448Z,725.96
2018-10-03T06:16:55.920Z,725.79
2018-10-03T06:17:56.392Z,725.72
2018-10-03T06:18:56.865Z,725.97
2018-10-03T06:19:57.339Z,725.95
2018-10-03T06:20:57.811Z,725.94
2018-10-03T06:21:58.282Z,725.95
2018-10-03T06:22:58.757Z,726.05
2018-10-03T06:23:59.228Z,726.03
2018-10-03T06:24:59.701Z,726.09
2018-10-03T06:26:00.175Z,726.03
2018-10-03T06:27:00.646Z,725.98
2018-10-03T06:28:01.121Z,726.01
2018-10-03T06:29:01.591Z,725.86
2018-10-03T06:30:02.063Z,725.22
2018-10-03T06:31:02.540Z,726.05
2018-10-03T06:32:03.009Z,725.89
2018-10-03T06:33:03.482Z,725.98
2018-10-03T06:34:03.954Z,725.78
2018-10-03T06:35:04.433Z,726.02
2018-10-03T06:36:04.899Z,726.05
2018-10-03T06:37:05.372Z,725.95
2018-10-03T06:38:05.843Z,725.95
2018-10-03T06:39:06.316Z,725.77
2018-10-03T06:40:06.790Z,725.89
2018-10-03T06:41:07.264Z,725.86
2018-10-03T06:42:07.736Z,725.83
2018-10-03T06:43:08.208Z,725.78
2018-10-03T06:44:08.683Z,726.05
2018-10-03T06:45:09.152Z,726.08
2018-10-03T06:46:09.628Z,726.12
2018-10-03T06:47:10.104Z,726.04
2018-10-03T06:48:10.569Z,726.23
2018-10-03T06:49:11.047Z,725.97
2018-10-03T06:50:11.515Z,725.82
2018-10-03T06:51:11.988Z,726.11
2018-10-03T06:52:12.462Z,725.82
2018-10-03T06:53:12.933Z,725.86
2018-10-03T06:54:13.405Z,725.93
2018-10-03T06:55:13.878Z,725.88
2018-10-03T06:56:14.351Z,725.81
2018-10-03T06:57:14.822Z,725.85
2018-10-03T06:58:15.296Z,725.97
2018-10-03T06:59:15.770Z,726.06
2018-10-03T07:00:16.242Z,726.26
2018-10-03T07:01:16.713Z,726.15
2018-10-03T07:02:17.187Z,726.23
2018-10-03T07:03:17.662Z,726.11
2018-10-03T07:04:18.132Z,726.04
2018-10-03T07:05:18.607Z,726.14
2018-10-03T07:06:19.076Z,726.25
2018-10-03T07:07:19.549Z,726.03
2018-10-03T07:08:20.021Z,726.16
2018-10-03T07:09:20.494Z,726.00
2018-10-03T07:10:20.968Z,726.17
2018-10-03T07:11:21.443Z,726.26
2018-10-03T07:12:21.913Z,726.22
2018-10-03T07:13:22.387Z,726.07
2018-10-03T07:14:22.857Z,726.00
2018-10-03T07:15:23.332Z,726.16
2018-10-03T07:16:23.801Z,726.22
2018-10-03T07:17:24.274Z,726.20
2018-10-03T07:18:24.750Z,726.38
2018-10-03T07:19:25.222Z,726.24
2018-10-03T07:20:25.693Z,726.36
2018-10-03T07:21:26.165Z,726.19
2018-10-03T07:22:26.637Z,726.31
2018-10-03T07:23:27.111Z,726.46
2018-10-03T07:24:27.584Z,726.26
2018-10-03T07:25:28.056Z,726.16
2018-10-03T07:26:28.529Z,726.29
2018-10-03T07:27:29.002Z,726.38
2018-10-03T07:28:29.476Z,726.35
2018-10-03T07:29:29.967Z,726.47
2018-10-03T07:30:30.417Z,726.48
2018-10-03T07:31:30.890Z,726.44
2018-10-03T07:32:31.366Z,726.30
2018-10-03T07:33:31.836Z,726.55
2018-10-03T07:34:32.309Z,726.40
2018-10-03T07:35:32.782Z,726.62
2018-10-03T07:36:33.253Z,726.53
2018-10-03T07:37:33.727Z,726.52
2018-10-03T07:38:34.200Z,726.61
2018-10-03T07:39:34.673Z,726.33
2018-10-03T07:40:35.150Z,726.49
2018-10-03T07:41:35.618Z,726.66
2018-10-03T07:42:36.093Z,726.56
2018-10-03T07:43:36.562Z,726.52
2018-10-03T07:44:37.038Z,726.58
2018-10-03T07:45:37.509Z,726.51
2018-10-03T07:46:37.981Z,726.61
2018-10-03T07:47:38.453Z,726.57
2018-10-03T07:48:38.926Z,726.56
2018-10-03T07:49:39.399Z,726.58
2018-10-03T07:50:39.879Z,726.58
2018-10-03T07:51:40.344Z,726.65
2018-10-03T07:52:40.821Z,726.75
2018-10-03T07:53:41.333Z,726.63
2018-10-03T07:54:41.763Z,726.65
2018-10-03T07:55:42.236Z,726.73
2018-10-03T07:56:42.708Z,726.84
2018-10-03T07:57:43.182Z,726.75
2018-10-03T07:58:43.654Z,726.67
2018-10-03T07:59:44.167Z,726.66
2018-10-03T08:00:44.599Z,726.67
2018-10-03T08:01:45.072Z,726.68
2018-10-03T08:02:45.547Z,726.68
2018-10-03T08:03:46.020Z,726.73
2018-10-03T08:04:46.493Z,726.75
2018-10-03T08:05:46.963Z,726.70
2018-10-03T08:06:47.436Z,726.70
2018-10-03T08:07:47.909Z,726.77
2018-10-03T08:08:48.382Z,726.72
2018-10-03T08:09:48.866Z,726.72
2018-10-03T08:10:49.330Z,726.82
2018-10-03T08:11:49.852Z,726.82
2018-10-03T08:12:50.278Z,726.83
2018-10-03T08:13:50.749Z,726.76
2018-10-03T08:14:51.223Z,726.81
2018-10-03T08:15:51.694Z,726.79
2018-10-03T08:16:52.167Z,726.85
2018-10-03T08:17:52.639Z,726.77
2018-10-03T08:18:53.113Z,726.82
2018-10-03T08:19:53.584Z,727.02
2018-10-03T08:20:54.059Z,726.90
2018-10-03T08:21:54.533Z,726.82
2018-10-03T08:22:55.005Z,726.92
2018-10-03T08:23:55.480Z,726.77
2018-10-03T08:24:55.949Z,726.90
2018-10-03T08:25:56.422Z,726.82
2018-10-03T08:26:56.897Z,726.81
2018-10-03T08:27:57.367Z,726.84
2018-10-03T08:28:57.840Z,726.71
2018-10-03T08:29:58.315Z,726.84
2018-10-03T08:30:58.784Z,726.93
2018-10-03T08:31:59.259Z,726.89
2018-10-03T08:32:59.851Z,726.77
2018-10-03T08:34:00.199Z,726.81
2018-10-03T08:35:00.672Z,726.91
2018-10-03T08:36:01.142Z,726.85
2018-10-03T08:37:01.612Z,726.86
2018-10-03T08:38:02.084Z,726.73
2018-10-03T08:39:02.556Z,726.69
2018-10-03T08:40:03.024Z,726.95
2018-10-03T08:41:03.496Z,726.88
2018-10-03T08:42:03.965Z,727.05
2018-10-03T08:43:04.437Z,726.90
2018-10-03T08:44:04.912Z,726.87
2018-10-03T08:45:05.373Z,727.04
2018-10-03T08:46:05.843Z,726.94
2018-10-03T08:47:06.315Z,726.87
2018-10-03T08:48:06.783Z,726.89
2018-10-03T08:49:07.252Z,726.84
2018-10-03T08:50:07.722Z,726.98
2018-10-03T08:51:08.194Z,726.88
2018-10-03T08:52:08.659Z,727.01
2018-10-03T08:53:09.127Z,726.74
2018-10-03T08:54:09.595Z,726.62
2018-10-03T08:55:10.064Z,726.69
2018-10-03T08:56:10.534Z,726.74
2018-10-03T08:57:11.001Z,726.85
2018-10-03T08:58:11.525Z,727.01
2018-10-03T08:59:11.942Z,726.99
2018-10-03T09:00:12.411Z,726.98
2018-10-03T09:01:12.878Z,727.00
2018-10-03T09:02:13.347Z,727.08
2018-10-03T09:03:13.818Z,727.07
2018-10-03T09:04:14.289Z,727.19
2018-10-03T09:05:14.755Z,727.11
2018-10-03T09:06:15.226Z,727.11
2018-10-03T09:07:15.697Z,726.97
2018-10-03T09:08:16.166Z,727.01
2018-10-03T09:09:16.635Z,727.05
2018-10-03T09:10:17.110Z,726.90
2018-10-03T09:11:17.575Z,727.24
2018-10-03T09:12:18.045Z,727.16
2018-10-03T09:13:18.515Z,727.24
2018-10-03T09:14:18.986Z,727.14
2018-10-03T09:15:19.455Z,727.20
2018-10-03T09:16:19.924Z,727.18
2018-10-03T09:17:20.398Z,727.24
2018-10-03T09:18:20.866Z,727.30
2018-10-03T09:19:21.337Z,727.26
2018-10-03T09:20:21.806Z,727.34
2018-10-03T09:21:22.329Z,727.24
2018-10-03T09:22:22.754Z,727.30
2018-10-03T09:23:23.221Z,727.18
2018-10-03T09:24:23.693Z,727.30
2018-10-03T09:25:24.164Z,727.29
2018-10-03T09:26:24.632Z,727.36
2018-10-03T09:27:25.104Z,727.25
2018-10-03T09:28:25.651Z,727.32
2018-10-03T09:29:26.046Z,727.21
2018-10-03T09:30:26.519Z,727.26
2018-10-03T09:31:26.989Z,727.23
2018-10-03T09:32:27.461Z,727.29
2018-10-03T09:33:27.936Z,727.23
2018-10-03T09:34:28.403Z,727.25
2018-10-03T09:35:28.879Z,727.23
2018-10-03T09:36:29.348Z,727.14
2018-10-03T09:37:29.818Z,727.08
2018-10-03T09:38:30.293Z,727.15
2018-10-03T09:39:30.786Z,727.10
2018-10-03T09:40:31.235Z,727.11
2018-10-03T09:41:31.708Z,727.17
2018-10-03T09:42:32.184Z,727.08
2018-10-03T09:43:32.656Z,727.23
2018-10-03T09:44:33.138Z,727.07
2018-10-03T09:45:33.596Z,727.11
2018-10-03T09:46:34.117Z,727.23
2018-10-03T09:47:34.543Z,727.30
2018-10-03T09:48:35.013Z,727.22
2018-10-03T09:49:35.487Z,727.28
2018-10-03T09:50:35.959Z,727.32
2018-10-03T09:51:36.431Z,727.25
2018-10-03T09:52:36.903Z,727.22
2018-10-03T09:53:37.375Z,727.26
2018-10-03T09:54:37.847Z,727.38
2018-10-03T09:55:38.322Z,727.39
2018-10-03T09:56:38.947Z,727.27
2018-10-03T09:57:39.267Z,727.36
2018-10-03T09:58:39.743Z,727.38
2018-10-03T09:59:40.212Z,727.46
2018-10-03T10:00:40.704Z,727.42
2018-10-03T10:01:41.158Z,727.39
2018-10-03T10:02:41.633Z,727.46
2018-10-03T10:03:42.105Z,727.38
2018-10-03T10:04:42.577Z,727.34
2018-10-03T10:05:43.049Z,727.37
2018-10-03T10:06:43.526Z,727.37
2018-10-03T10:07:43.996Z,727.31
2018-10-03T10:08:44.471Z,727.35
2018-10-03T10:09:44.941Z,727.36
2018-10-03T10:10:45.417Z,727.36
2018-10-03T10:11:45.989Z,727.23
2018-10-03T10:12:46.360Z,727.34
2018-10-03T10:13:46.833Z,727.40
2018-10-03T10:14:47.309Z,727.32
2018-10-03T10:15:47.780Z,727.38
2018-10-03T10:16:48.253Z,727.43
2018-10-03T10:17:48.721Z,727.48
2018-10-03T10:18:49.193Z,727.38
2018-10-03T10:19:49.667Z,727.44
2018-10-03T10:20:50.206Z,727.47
2018-10-03T10:21:50.609Z,727.53
2018-10-03T10:22:51.080Z,727.63
2018-10-03T10:23:51.552Z,727.56
2018-10-03T10:24:52.022Z,727.56
2018-10-03T10:25:52.491Z,727.47
2018-10-03T10:26:52.960Z,727.46
2018-10-03T10:27:53.434Z,727.42
2018-10-03T10:28:53.903Z,727.35
2018-10-03T10:29:54.378Z,727.45
2018-10-03T10:30:54.840Z,727.49
2018-10-03T10:31:55.442Z,727.40
2018-10-03T10:32:55.951Z,727.42
2018-10-03T10:33:56.253Z,727.32
2018-10-03T10:34:56.718Z,727.49
2018-10-03T10:35:57.186Z,727.45
2018-10-03T10:36:57.655Z,727.43
2018-10-03T10:37:58.127Z,727.40
2018-10-03T10:38:58.596Z,727.33
2018-10-03T10:39:59.132Z,727.56
2018-10-03T10:40:59.602Z,727.54
2018-10-03T10:42:00.001Z,727.38
2018-10-03T10:43:00.471Z,727.49
2018-10-03T10:44:00.940Z,727.57
2018-10-03T10:45:01.409Z,727.56
2018-10-03T10:46:01.877Z,727.45
2018-10-03T10:47:02.348Z,727.46
2018-10-03T10:48:02.816Z,727.49
2018-10-03T10:49:03.287Z,727.48
2018-10-03T10:50:03.783Z,727.46
2018-10-03T10:51:04.232Z,727.50
2018-10-03T10:52:04.696Z,727.45
2018-10-03T10:53:05.165Z,727.48
2018-10-03T10:54:05.634Z,727.56
2018-10-03T10:55:06.105Z,727.52
2018-10-03T10:56:06.579Z,727.53
2018-10-03T10:57:07.050Z,727.46
2018-10-03T10:58:07.515Z,727.57
2018-10-03T10:59:07.987Z,727.51
2018-10-03T11:00:08.457Z,727.58
2018-10-03T11:01:08.929Z,727.56
2018-10-03T11:02:09.399Z,727.55
2018-10-03T11:03:09.869Z,727.61
2018-10-03T11:04:10.343Z,727.52
2018-10-03T11:05:10.813Z,727.53
2018-10-03T11:06:11.319Z,727.51
2018-10-03T11:07:11.753Z,727.51
2018-10-03T11:08:12.230Z,727.43
2018-10-03T11:09:12.696Z,727.49
2018-10-03T11:10:13.167Z,727.43
2018-10-03T11:11:13.639Z,727.58
2018-10-03T11:12:14.111Z,727.54
2018-10-03T11:13:14.582Z,727.67
2018-10-03T11:14:15.054Z,727.59
2018-10-03T11:15:15.525Z,727.53
2018-10-03T11:16:15.997Z,727.56
2018-10-03T11:17:16.520Z,727.55
2018-10-03T11:18:16.942Z,727.47
2018-10-03T11:19:17.412Z,727.44
2018-10-03T11:20:17.886Z,727.46
2018-10-03T11:21:18.358Z,727.51
2018-10-03T11:22:18.829Z,727.50
2018-10-03T11:23:19.310Z,727.58
2018-10-03T11:24:20.000Z,727.55
2018-10-03T11:25:20.245Z,727.58
2018-10-03T11:26:20.748Z,727.45
2018-10-03T11:27:21.242Z,727.59
2018-10-03T11:28:21.665Z,727.58
2018-10-03T11:29:22.137Z,727.49
2018-10-03T11:30:22.607Z,727.49
2018-10-03T11:31:23.082Z,727.48
2018-10-03T11:32:23.554Z,727.36
2018-10-03T11:33:24.028Z,727.47
2018-10-03T11:34:24.498Z,727.52
2018-10-03T11:35:24.972Z,727.56
2018-10-03T11:36:25.446Z,727.48
2018-10-03T11:37:25.919Z,727.44
2018-10-03T11:38:26.391Z,727.50
2018-10-03T11:39:26.864Z,727.45
2018-10-03T11:40:27.336Z,727.47
2018-10-03T11:41:27.810Z,727.51
2018-10-03T11:42:28.283Z,727.52
2018-10-03T11:43:28.755Z,727.49
2018-10-03T11:44:29.230Z,727.57
2018-10-03T11:45:29.703Z,727.57
2018-10-03T11:46:30.175Z,727.43
2018-10-03T11:47:30.648Z,727.47
2018-10-03T11:48:31.121Z,727.47
2018-10-03T11:49:31.595Z,727.51
2018-10-03T11:50:32.076Z,727.48
2018-10-03T11:51:32.538Z,727.35
2018-10-03T11:52:33.012Z,727.32
2018-10-03T11:53:33.486Z,727.24
2018-10-03T11:54:33.959Z,727.43
2018-10-03T11:55:34.436Z,727.45
2018-10-03T11:56:34.901Z,727.25
2018-10-03T11:57:35.373Z,727.25
2018-10-03T11:58:35.847Z,727.37
2018-10-03T11:59:36.381Z,727.50
2018-10-03T12:00:36.789Z,727.43
2018-10-03T12:01:37.266Z,727.46
2018-10-03T12:02:37.752Z,727.58
2018-10-03T12:03:38.266Z,727.42
2018-10-03T12:04:38.671Z,727.38
2018-10-03T12:05:39.147Z,727.39
2018-10-03T12:06:39.656Z,727.49
2018-10-03T12:07:40.084Z,727.36
2018-10-03T12:08:40.555Z,727.40
2018-10-03T12:09:41.023Z,727.42
2018-10-03T12:10:41.492Z,727.55
2018-10-03T12:11:41.960Z,727.42
2018-10-03T12:12:42.432Z,727.54
2018-10-03T12:13:42.936Z,727.42
2018-10-03T12:14:43.368Z,727.44
2018-10-03T12:15:43.838Z,727.36
2018-10-03T12:16:44.307Z,727.47
2018-10-03T12:17:44.777Z,727.43
2018-10-03T12:18:45.247Z,727.29
2018-10-03T12:19:45.715Z,727.36
2018-10-03T12:20:46.184Z,727.53
2018-10-03T12:21:46.654Z,727.46
2018-10-03T12:22:47.125Z,727.36
2018-10-03T12:23:47.592Z,727.40
2018-10-03T12:24:48.061Z,727.36
2018-10-03T12:25:48.532Z,727.32
2018-10-03T12:26:49.004Z,727.31
2018-10-03T12:27:49.469Z,727.35
2018-10-03T12:28:49.943Z,727.42
2018-10-03T12:29:50.410Z,727.25
2018-10-03T12:30:50.881Z,727.37
2018-10-03T12:31:51.349Z,727.46
2018-10-03T12:32:51.819Z,727.18
2018-10-03T12:33:52.305Z,727.32
2018-10-03T12:34:52.761Z,727.29
2018-10-03T12:35:53.228Z,727.38